createdAt,value
2019-06-08T00:02:47.733Z,101630.67
2019-06-08T00:05:54.276Z,101636.84
2019-06-08T00:09:00.798Z,101633.53
2019-06-08T00:12:08.852Z,101648.16
2019-06-08T00:15:16.174Z,101648.52
2019-06-08T00:18:23.610Z,101640.00
2019-06-08T00:21:30.198Z,101649.05
2019-06-08T00:24:36.635Z,101650.08
2019-06-08T00:27:43.330Z,101654.30
2019-06-08T00:30:49.899Z,101650.86
2019-06-08T00:33:56.402Z,101644.38
2019-06-08T00:37:02.860Z,101639.39
2019-06-08T00:40:09.433Z,101628.53
2019-06-08T00:43:17.064Z,101643.86
2019-06-08T00:46:24.043Z,101645.19
2019-06-08T00:49:30.504Z,101647.33
2019-06-08T00:52:37.050Z,101648.64
2019-06-08T00:55:43.588Z,101645.11
2019-06-08T00:58:50.306Z,101641.70
2019-06-08T01:01:57.185Z,101616.22
2019-06-08T01:05:03.800Z,101616.22
2019-06-08T01:08:10.329Z,101631.02
2019-06-08T01:11:16.901Z,101623.52
2019-06-08T01:14:24.915Z,101625.52
2019-06-08T01:17:31.389Z,101629.78
2019-06-08T01:20:37.904Z,101625.03
2019-06-08T01:23:44.439Z,101629.09
2019-06-08T01:26:51.255Z,101628.60
2019-06-08T01:29:57.760Z,101629.98
2019-06-08T01:33:04.511Z,101626.56
2019-06-08T01:36:11.546Z,101630.77
2019-06-08T01:39:17.990Z,101636.25
2019-06-08T01:42:25.552Z,101623.33
2019-06-08T01:45:33.083Z,101615.14
2019-06-08T01:48:40.288Z,101618.55
2019-06-08T01:51:46.950Z,101615.35
2019-06-08T01:54:53.656Z,101603.49
2019-06-08T01:58:00.258Z,101603.49
2019-06-08T02:01:07.035Z,101602.52
2019-06-08T02:04:13.783Z,101602.16
2019-06-08T02:07:20.310Z,101606.89
2019-06-08T02:10:26.806Z,101597.19
2019-06-08T02:13:33.375Z,101589.05
2019-06-08T02:16:39.843Z,101589.05
2019-06-08T02:19:46.369Z,101596.66
2019-06-08T02:22:52.851Z,101598.09
2019-06-08T02:26:00.413Z,101601.77
2019-06-08T02:29:06.882Z,101597.56
2019-06-08T02:32:14.434Z,101601.58
2019-06-08T02:35:21.258Z,101599.98
2019-06-08T02:38:29.769Z,101601.52
2019-06-08T02:41:37.555Z,101601.52
2019-06-08T02:44:44.214Z,101603.33
2019-06-08T02:47:50.767Z,101603.33
2019-06-08T02:50:57.721Z,101606.24
2019-06-08T02:54:04.472Z,101618.95
2019-06-08T02:57:11.369Z,101620.98
2019-06-08T03:00:18.377Z,101621.36
2019-06-08T03:03:26.550Z,101633.88
2019-06-08T03:06:36.792Z,101629.03
2019-06-08T03:09:43.943Z,101621.70
2019-06-08T03:12:51.991Z,101627.74
2019-06-08T03:15:58.493Z,101621.49
2019-06-08T03:19:20.753Z,101624.71
2019-06-08T03:22:13.087Z,101622.61
2019-06-08T03:25:19.589Z,101619.98
2019-06-08T03:28:26.123Z,101624.41
2019-06-08T03:31:54.257Z,101611.82
2019-06-08T03:34:56.286Z,101611.82
2019-06-08T03:38:01.229Z,101617.36
2019-06-08T03:41:08.079Z,101600.17
2019-06-08T03:44:14.533Z,101612.19
2019-06-08T03:47:21.079Z,101620.70
2019-06-08T03:50:27.546Z,101619.52
2019-06-08T03:53:35.702Z,101586.52
2019-06-08T03:56:44.112Z,101610.06
2019-06-08T03:59:50.821Z,101615.80
2019-06-08T04:02:57.303Z,101624.20
2019-06-08T04:06:03.822Z,101625.98
2019-06-08T04:09:10.539Z,101627.47
2019-06-08T04:12:17.090Z,101630.73
2019-06-08T04:15:24.459Z,101631.66
2019-06-08T04:18:30.929Z,101628.60
2019-06-08T04:21:40.122Z,101631.48
2019-06-08T04:24:46.783Z,101627.12
2019-06-08T04:27:53.171Z,101636.83
2019-06-08T04:30:59.635Z,101642.73
2019-06-08T04:34:05.981Z,101638.91
2019-06-08T04:37:15.827Z,101636.84
2019-06-08T04:40:20.733Z,101622.09
2019-06-08T04:43:27.178Z,101625.27
2019-06-08T04:46:33.610Z,101631.38
2019-06-08T04:49:40.240Z,101636.78
2019-06-08T04:52:47.495Z,101636.61
2019-06-08T04:55:55.506Z,101638.62
2019-06-08T04:59:02.050Z,101641.97
2019-06-08T05:02:08.583Z,101642.97
2019-06-08T05:05:15.280Z,101642.97
2019-06-08T05:08:21.780Z,101634.20
2019-06-08T05:11:28.529Z,101639.83
2019-06-08T05:14:35.085Z,101648.48
2019-06-08T05:17:43.158Z,101642.58
2019-06-08T05:20:51.455Z,101642.40
2019-06-08T05:23:59.076Z,101651.06
2019-06-08T05:27:08.474Z,101653.05
2019-06-08T05:30:15.406Z,101657.52
2019-06-08T05:33:21.877Z,101662.70
2019-06-08T05:36:28.324Z,101657.08
2019-06-08T05:39:34.800Z,101661.69
2019-06-08T05:42:42.787Z,101667.20
2019-06-08T05:45:49.982Z,101668.53
2019-06-08T05:48:57.471Z,101672.55
2019-06-08T05:52:03.963Z,101657.81
2019-06-08T05:55:10.950Z,101657.81
2019-06-08T05:58:17.703Z,101661.98
2019-06-08T06:01:24.236Z,101664.25
2019-06-08T06:04:30.666Z,101650.23
2019-06-08T06:07:40.426Z,101650.23
2019-06-08T06:10:47.276Z,101653.22
2019-06-08T06:13:53.849Z,101646.95
2019-06-08T06:17:00.537Z,101638.52
2019-06-08T06:20:07.230Z,101645.61
2019-06-08T06:23:13.821Z,101652.66
2019-06-08T06:26:20.247Z,101662.92
2019-06-08T06:29:27.054Z,101650.91
2019-06-08T06:32:33.587Z,101650.30
2019-06-08T06:35:40.019Z,101657.08
2019-06-08T06:38:47.906Z,101650.52
2019-06-08T06:41:54.691Z,101635.05
2019-06-08T06:45:01.143Z,101668.52
2019-06-08T06:48:07.711Z,101657.48
2019-06-08T06:51:25.862Z,101663.93
2019-06-08T06:54:22.512Z,101664.31
2019-06-08T06:57:29.936Z,101665.28
2019-06-08T07:00:37.629Z,101662.53
2019-06-08T07:03:44.273Z,101661.64
2019-06-08T07:06:52.166Z,101665.55
2019-06-08T07:09:58.717Z,101655.80
2019-06-08T07:13:05.197Z,101657.11
2019-06-08T07:16:18.597Z,101661.52
2019-06-08T07:19:20.457Z,101655.94
2019-06-08T07:22:27.080Z,101649.35
2019-06-08T07:25:33.898Z,101658.98
2019-06-08T07:28:40.356Z,101653.27
2019-06-08T07:31:48.313Z,101664.66
2019-06-08T07:34:55.433Z,101657.19
2019-06-08T07:38:02.300Z,101657.19
2019-06-08T07:41:08.747Z,101653.06
2019-06-08T07:44:15.336Z,101646.75
2019-06-08T07:47:21.854Z,101641.02
2019-06-08T07:50:28.357Z,101646.84
2019-06-08T07:53:34.872Z,101646.91
2019-06-08T07:56:41.680Z,101654.10
2019-06-08T07:59:49.195Z,101647.95
2019-06-08T08:02:56.788Z,101642.66
2019-06-08T08:06:03.270Z,101641.24
2019-06-08T08:09:09.716Z,101639.36
2019-06-08T08:12:16.242Z,101636.33
2019-06-08T08:15:22.694Z,101636.33
2019-06-08T08:18:29.351Z,101635.05
2019-06-08T08:21:37.977Z,101636.63
2019-06-08T08:24:44.248Z,101636.63
2019-06-08T08:27:51.901Z,101631.41
2019-06-08T08:31:01.666Z,101640.42
2019-06-08T08:34:08.951Z,101636.55
2019-06-08T08:37:17.412Z,101634.20
2019-06-08T08:40:23.428Z,101618.09
2019-06-08T08:43:29.888Z,101618.09
2019-06-08T08:46:38.748Z,101637.34
2019-06-08T08:49:44.598Z,101639.00
2019-06-08T08:52:52.285Z,101634.81
2019-06-08T08:56:01.226Z,101632.94
2019-06-08T08:59:07.783Z,101616.69
2019-06-08T09:02:20.504Z,101623.19
2019-06-08T09:05:23.501Z,101620.37
2019-06-08T09:08:30.128Z,101611.09
2019-06-08T09:11:38.344Z,101605.86
2019-06-08T09:14:47.744Z,101611.72
2019-06-08T09:17:53.844Z,101601.98
2019-06-08T09:21:02.855Z,101604.13
2019-06-08T09:24:08.859Z,101604.13
2019-06-08T09:27:17.751Z,101616.14
2019-06-08T09:30:23.420Z,101611.75
2019-06-08T09:33:29.886Z,101607.39
2019-06-08T09:36:37.558Z,101608.75
2019-06-08T09:39:44.746Z,101592.86
2019-06-08T09:42:55.432Z,101592.86
2019-06-08T09:46:02.044Z,101604.46
2019-06-08T09:49:11.676Z,101594.28
2019-06-08T09:52:18.382Z,101599.86
2019-06-08T09:55:28.691Z,101612.77
2019-06-08T09:58:34.111Z,101598.80
2019-06-08T10:01:40.600Z,101612.27
2019-06-08T10:04:48.351Z,101604.05
2019-06-08T10:07:56.856Z,101608.69
2019-06-08T10:11:05.644Z,101618.88
2019-06-08T10:14:12.721Z,101606.05
2019-06-08T10:17:20.992Z,101596.01
2019-06-08T10:20:28.864Z,101596.01
2019-06-08T10:23:41.196Z,101600.06
2019-06-08T10:26:44.417Z,101600.13
2019-06-08T10:29:51.024Z,101594.15
2019-06-08T10:33:00.441Z,101592.64
2019-06-08T10:36:09.497Z,101587.86
2019-06-08T10:39:14.002Z,101599.26
2019-06-08T10:42:20.528Z,101587.75
2019-06-08T10:45:28.616Z,101579.36
2019-06-08T10:48:37.519Z,101571.95
2019-06-08T10:51:43.325Z,101573.61
2019-06-08T10:54:50.821Z,101576.80
2019-06-08T10:57:58.500Z,101580.45
2019-06-08T11:01:10.790Z,101579.58
2019-06-08T11:04:14.229Z,101579.58
2019-06-08T11:07:20.767Z,101578.74
2019-06-08T11:10:27.484Z,101578.74
2019-06-08T11:13:33.888Z,101578.97
2019-06-08T11:16:40.415Z,101578.74
2019-06-08T11:19:48.034Z,101572.78
2019-06-08T11:22:57.843Z,101573.45
2019-06-08T11:26:07.683Z,101574.98
2019-06-08T11:29:13.815Z,101561.38
2019-06-08T11:32:20.050Z,101571.80
2019-06-08T11:35:28.580Z,101571.80
2019-06-08T11:38:34.732Z,101568.06
2019-06-08T11:41:41.189Z,101569.05
2019-06-08T11:44:51.212Z,101570.13
2019-06-08T11:48:00.683Z,101569.05
2019-06-08T11:51:09.594Z,101575.50
2019-06-08T11:54:29.530Z,101565.17
2019-06-08T11:57:23.696Z,101568.37
2019-06-08T12:00:52.510Z,101572.22
2019-06-08T12:03:58.863Z,101562.00
2019-06-08T12:07:07.052Z,101568.19
2019-06-08T12:10:14.171Z,101564.46
2019-06-08T12:13:21.839Z,101559.59
2019-06-08T12:16:28.458Z,101572.33
2019-06-08T12:19:37.694Z,101564.73
2019-06-08T12:22:44.420Z,101564.87
2019-06-08T12:25:51.083Z,101564.64
2019-06-08T12:28:58.430Z,101560.57
2019-06-08T12:32:08.824Z,101557.18
2019-06-08T12:35:14.073Z,101561.00
2019-06-08T12:38:20.477Z,101567.11
2019-06-08T12:41:28.879Z,101574.42
2019-06-08T12:44:38.313Z,101572.34
2019-06-08T12:47:44.522Z,101579.09
2019-06-08T12:50:51.970Z,101582.36
2019-06-08T12:54:00.251Z,101600.84
2019-06-08T12:57:12.184Z,101583.22
2019-06-08T13:00:19.661Z,101579.61
2019-06-08T13:03:24.923Z,101583.95
2019-06-08T13:06:31.354Z,101577.89
2019-06-08T13:09:38.258Z,101580.43
2019-06-08T13:12:44.987Z,101570.77
2019-06-08T13:15:51.460Z,101568.52
2019-06-08T13:18:58.676Z,101569.58
2019-06-08T13:22:05.348Z,101569.84
2019-06-08T13:25:25.886Z,101573.16
2019-06-08T13:28:24.985Z,101568.25
2019-06-08T13:31:28.965Z,101572.28
2019-06-08T13:34:35.562Z,101560.25
2019-06-08T13:37:42.127Z,101568.03
2019-06-08T13:40:48.603Z,101561.38
2019-06-08T13:43:55.027Z,101556.96
2019-06-08T13:47:01.455Z,101554.59
2019-06-08T13:50:08.255Z,101552.56
2019-06-08T13:53:19.247Z,101551.33
2019-06-08T13:56:24.680Z,101557.17
2019-06-08T13:59:31.178Z,101557.79
2019-06-08T14:02:39.695Z,101546.14
2019-06-08T14:05:47.355Z,101548.52
2019-06-08T14:08:54.004Z,101558.28
2019-06-08T14:12:00.559Z,101558.28
2019-06-08T14:15:08.654Z,101541.83
2019-06-08T14:18:20.890Z,101549.95
2019-06-08T14:21:35.646Z,101546.31
2019-06-08T14:24:34.416Z,101548.13
2019-06-08T14:27:39.859Z,101535.56
2019-06-08T14:30:47.951Z,101542.30
2019-06-08T14:33:55.097Z,101544.96
2019-06-08T14:37:01.597Z,101535.77
2019-06-08T14:40:08.411Z,101535.77
2019-06-08T14:43:14.896Z,101532.19
2019-06-08T14:46:23.134Z,101524.53
2019-06-08T14:49:34.728Z,101531.50
2019-06-08T14:52:38.282Z,101527.72
2019-06-08T14:55:44.798Z,101539.17
2019-06-08T14:58:51.215Z,101527.36
2019-06-08T15:01:57.852Z,101532.41
2019-06-08T15:05:04.933Z,101518.68
2019-06-08T15:08:11.490Z,101519.73
2019-06-08T15:11:18.028Z,101513.02
2019-06-08T15:14:25.771Z,101518.44
2019-06-08T15:17:32.368Z,101511.37
2019-06-08T15:20:38.984Z,101497.66
2019-06-08T15:23:47.214Z,101514.70
2019-06-08T15:26:53.613Z,101506.59
2019-06-08T15:30:00.194Z,101494.31
2019-06-08T15:33:06.630Z,101501.08
2019-06-08T15:36:13.339Z,101503.28
2019-06-08T15:39:19.776Z,101506.34
2019-06-08T15:42:28.714Z,101505.59
2019-06-08T15:45:34.423Z,101517.77
2019-06-08T15:48:40.859Z,101520.30
2019-06-08T15:51:48.145Z,101515.42
2019-06-08T15:54:58.090Z,101520.05
2019-06-08T15:58:02.856Z,101522.04
2019-06-08T16:01:09.279Z,101508.44
2019-06-08T16:04:15.748Z,101519.94
2019-06-08T16:07:22.272Z,101517.83
2019-06-08T16:10:30.292Z,101510.77
2019-06-08T16:13:36.648Z,101504.92
2019-06-08T16:16:43.119Z,101505.09
2019-06-08T16:19:53.013Z,101509.30
2019-06-08T16:22:58.207Z,101511.37
2019-06-08T16:26:04.611Z,101500.89
2019-06-08T16:29:10.960Z,101497.80
2019-06-08T16:32:17.429Z,101497.97
2019-06-08T16:35:23.902Z,101537.64
2019-06-08T16:38:30.445Z,101512.41
2019-06-08T16:41:36.954Z,101508.97
2019-06-08T16:44:43.395Z,101508.00
2019-06-08T16:47:49.890Z,101508.17
2019-06-08T16:50:56.317Z,101498.95
2019-06-08T16:54:03.386Z,101505.48
2019-06-08T16:57:11.208Z,101510.48
2019-06-08T17:00:30.656Z,101520.30
2019-06-08T17:03:26.372Z,101505.52
2019-06-08T17:06:33.593Z,101505.87
2019-06-08T17:09:41.158Z,101503.63
2019-06-08T17:12:47.911Z,101488.66
2019-06-08T17:15:54.374Z,101497.55
2019-06-08T17:19:00.924Z,101502.27
2019-06-08T17:22:07.815Z,101481.70
2019-06-08T17:25:16.130Z,101477.52
2019-06-08T17:28:22.553Z,101481.70
2019-06-08T17:31:29.128Z,101479.19
2019-06-08T17:34:36.647Z,101477.00
2019-06-08T17:37:43.466Z,101490.61
2019-06-08T17:40:50.109Z,101491.45
2019-06-08T17:43:56.511Z,101497.80
2019-06-08T17:47:02.921Z,101500.54
2019-06-08T17:50:09.643Z,101493.89
2019-06-08T17:53:16.087Z,101505.23
2019-06-08T17:56:22.612Z,101501.03
2019-06-08T17:59:29.155Z,101497.08
2019-06-08T18:02:38.329Z,101495.39
2019-06-08T18:05:45.611Z,101486.53
2019-06-08T18:08:52.570Z,101496.77
2019-06-08T18:11:59.704Z,101505.35
2019-06-08T18:15:07.865Z,101507.18
2019-06-08T18:18:14.528Z,101508.02
2019-06-08T18:21:21.407Z,101518.84
2019-06-08T18:24:28.112Z,101528.50
2019-06-08T18:27:39.212Z,101528.91
2019-06-08T18:30:45.154Z,101533.70
2019-06-08T18:33:53.200Z,101536.23
2019-06-08T18:36:59.686Z,101535.37
2019-06-08T18:40:07.456Z,101535.25
2019-06-08T18:43:14.161Z,101538.70
2019-06-08T18:46:21.696Z,101540.98
2019-06-08T18:49:29.148Z,101541.06
2019-06-08T18:52:39.876Z,101544.05
2019-06-08T18:55:45.667Z,101543.94
2019-06-08T18:58:53.717Z,101546.75
2019-06-08T19:02:00.369Z,101552.19
2019-06-08T19:05:08.425Z,101552.19
2019-06-08T19:08:15.036Z,101546.89
2019-06-08T19:11:21.603Z,101546.21
2019-06-08T19:14:29.096Z,101554.47
2019-06-08T19:17:39.786Z,101549.82
2019-06-08T19:20:47.075Z,101547.30
2019-06-08T19:23:52.462Z,101547.20
2019-06-08T19:26:59.994Z,101553.63
2019-06-08T19:30:07.804Z,101551.73
2019-06-08T19:33:14.279Z,101552.17
2019-06-08T19:36:21.324Z,101547.77
2019-06-08T19:39:28.282Z,101548.59
2019-06-08T19:42:40.584Z,101553.14
2019-06-08T19:45:44.256Z,101557.89
2019-06-08T19:48:54.872Z,101561.47
2019-06-08T19:52:00.150Z,101572.84
2019-06-08T19:55:07.905Z,101572.91
2019-06-08T19:58:14.639Z,101585.77
2019-06-08T20:01:21.250Z,101591.53
2019-06-08T20:04:27.890Z,101598.81
2019-06-08T20:07:37.618Z,101596.21
2019-06-08T20:10:43.566Z,101596.21
2019-06-08T20:13:51.529Z,101619.12
2019-06-08T20:16:58.246Z,101622.42
2019-06-08T20:20:10.294Z,101605.22
2019-06-08T20:23:15.286Z,101608.48
2019-06-08T20:26:21.756Z,101611.12
2019-06-08T20:29:28.644Z,101612.55
2019-06-08T20:32:37.745Z,101644.66
2019-06-08T20:35:43.622Z,101643.00
2019-06-08T20:38:50.898Z,101655.30
2019-06-08T20:41:58.521Z,101669.06
2019-06-08T20:45:07.947Z,101667.94
2019-06-08T20:48:14.295Z,101669.38
2019-06-08T20:51:20.995Z,101663.19
2019-06-08T20:54:27.942Z,101669.11
2019-06-08T20:57:34.493Z,101672.36
2019-06-08T21:00:40.967Z,101672.36
2019-06-08T21:03:48.612Z,101684.00
2019-06-08T21:06:57.355Z,101684.00
2019-06-08T21:10:04.294Z,101691.11
2019-06-08T21:13:10.736Z,101689.10
2019-06-08T21:16:18.187Z,101689.10
2019-06-08T21:19:24.828Z,101688.03
2019-06-08T21:22:32.384Z,101688.03
2019-06-08T21:25:38.889Z,101706.34
2019-06-08T21:28:47.194Z,101714.05
2019-06-08T21:31:55.262Z,101696.90
2019-06-08T21:35:01.770Z,101705.39
2019-06-08T21:38:22.631Z,101703.42
2019-06-08T21:41:17.240Z,101696.00
2019-06-08T21:44:23.794Z,101700.09
2019-06-08T21:47:30.307Z,101722.66
2019-06-08T21:50:38.152Z,101695.99
2019-06-08T21:53:46.997Z,101695.99
2019-06-08T21:56:53.238Z,101709.63
2019-06-08T22:00:21.999Z,101728.48
2019-06-08T22:03:10.827Z,101728.99
2019-06-08T22:06:17.765Z,101743.02
2019-06-08T22:09:24.359Z,101750.62
2019-06-08T22:12:30.901Z,101748.45
2019-06-08T22:15:37.894Z,101719.88
2019-06-08T22:18:47.470Z,101719.88
2019-06-08T22:21:54.260Z,101723.70
2019-06-08T22:25:01.765Z,101750.82
2019-06-08T22:28:08.213Z,101768.22
2019-06-08T22:31:16.972Z,101760.17
2019-06-08T22:34:22.915Z,101763.29
2019-06-08T22:37:31.143Z,101781.41
2019-06-08T22:40:37.518Z,101783.63
2019-06-08T22:43:44.040Z,101783.63
2019-06-08T22:46:50.622Z,101768.89
2019-06-08T22:50:00.258Z,101785.95
2019-06-08T22:53:08.046Z,101771.45
2019-06-08T22:56:14.639Z,101766.26
2019-06-08T22:59:21.191Z,101774.77
2019-06-08T23:02:27.873Z,101760.98
2019-06-08T23:05:34.286Z,101762.17
2019-06-08T23:08:40.825Z,101790.54
2019-06-08T23:11:47.427Z,101785.44
2019-06-08T23:14:54.365Z,101788.84
2019-06-08T23:18:02.569Z,101778.66
2019-06-08T23:21:09.128Z,101776.00
2019-06-08T23:24:18.071Z,101776.00
2019-06-08T23:27:27.051Z,101793.48
2019-06-08T23:30:33.191Z,101798.39
2019-06-08T23:33:39.730Z,101794.58
2019-06-08T23:36:57.607Z,101791.16
2019-06-08T23:39:54.598Z,101799.54
2019-06-08T23:43:01.625Z,101791.38
2019-06-08T23:46:09.748Z,101795.17
2019-06-08T23:49:18.670Z,101797.91
2019-06-08T23:52:24.512Z,101807.58
2019-06-08T23:55:31.343Z,101803.25
2019-06-08T23:58:39.114Z,101808.74
